createdAt,value
2018-04-06T15:16:41.447Z,98670
2018-04-06T15:19:08.836Z,98673
2018-04-06T15:21:35.561Z,98676
2018-04-06T15:24:02.201Z,98673
2018-04-06T15:26:29.048Z,98668
2018-04-06T15:28:55.701Z,98667
2018-04-06T15:31:22.346Z,98667
2018-04-06T15:33:48.974Z,98669
2018-04-06T15:36:15.624Z,98666
2018-04-06T15:38:42.254Z,98663
2018-04-06T15:41:09.743Z,98662
2018-04-06T15:43:36.400Z,98662
2018-04-06T15:46:03.789Z,98662
2018-04-06T15:48:30.427Z,98660
2018-04-06T15:50:57.113Z,98659
2018-04-06T15:53:23.793Z,98660
2018-04-06T15:55:50.416Z,98656
2018-04-06T15:58:17.799Z,98658
2018-04-06T16:00:44.513Z,98655
2018-04-06T16:03:11.193Z,98654
2018-04-06T16:05:38.649Z,98647
2018-04-06T16:08:05.333Z,98651
2018-04-06T16:10:32.828Z,98653
2018-04-06T16:12:59.515Z,98650
2018-04-06T16:15:26.414Z,98647
2018-04-06T16:17:53.379Z,98645
2018-04-06T16:20:20.135Z,98645
2018-04-06T16:22:46.865Z,98645
2018-04-06T16:25:13.659Z,98648
2018-04-06T16:27:40.386Z,98646
2018-04-06T16:30:07.120Z,98646
2018-04-06T16:32:33.959Z,98645
2018-04-06T16:35:01.334Z,98647
2018-04-06T16:37:27.954Z,98651
2018-04-06T16:39:55.352Z,98644
2018-04-06T16:42:22.033Z,98646
2018-04-06T16:44:49.386Z,98644
2018-04-06T16:47:16.741Z,98639
2018-04-06T16:49:44.098Z,98638
2018-04-06T16:52:11.453Z,98639
2018-04-06T16:54:38.813Z,98642
2018-04-06T16:57:06.201Z,98640
2018-04-06T16:59:32.818Z,98644
2018-04-06T17:01:59.492Z,98647
2018-04-06T17:04:26.222Z,98651
2018-04-06T17:06:52.961Z,98646
2018-04-06T17:09:19.587Z,98658
2018-04-06T17:11:46.246Z,98660
2018-04-06T17:14:12.879Z,98661
2018-04-06T17:16:39.538Z,98662
2018-04-06T17:19:06.198Z,98662
2018-04-06T17:21:33.548Z,98662
2018-04-06T17:24:00.913Z,98665
2018-04-06T17:26:28.292Z,98669
2018-04-06T17:28:54.925Z,98670
2018-04-06T17:31:21.537Z,98672
2018-04-06T17:33:48.899Z,98665
2018-04-06T17:36:16.313Z,98667
2018-04-06T17:38:42.986Z,98673
2018-04-06T17:41:10.375Z,98675
2018-04-06T17:43:37.107Z,98677
2018-04-06T17:46:04.470Z,98674
2018-04-06T17:48:31.105Z,98672
2018-04-06T17:50:57.760Z,98677
2018-04-06T17:53:24.378Z,98683
2018-04-06T17:55:51.049Z,98681
2018-04-06T17:58:17.683Z,98682
2018-04-06T18:00:44.298Z,98685
2018-04-06T18:03:10.918Z,98686
2018-04-06T18:05:37.598Z,98690
2018-04-06T18:08:04.246Z,98695
2018-04-06T18:10:30.865Z,98696
2018-04-06T18:12:57.485Z,98698
2018-04-06T18:15:24.141Z,98699
2018-04-06T18:17:50.758Z,98702
2018-04-06T18:20:17.385Z,98707
2018-04-06T18:22:44.086Z,98708
2018-04-06T18:25:11.466Z,98717
2018-04-06T18:27:38.168Z,98716
2018-04-06T18:30:04.807Z,98723
2018-04-06T18:32:32.173Z,98720
2018-04-06T18:34:59.566Z,98725
2018-04-06T18:37:26.193Z,98729
2018-04-06T18:39:52.898Z,98726
2018-04-06T18:42:20.296Z,98732
2018-04-06T18:44:47.014Z,98734
2018-04-06T18:47:14.432Z,98735
2018-04-06T18:49:41.881Z,98739
2018-04-06T18:52:08.596Z,98743
2018-04-06T18:54:35.321Z,98736
2018-04-06T18:57:02.029Z,98745
2018-04-06T18:59:29.626Z,98746
2018-04-06T19:01:56.440Z,98748
2018-04-06T19:04:23.141Z,98741
2018-04-06T19:06:49.823Z,98749
2018-04-06T19:09:16.514Z,98748
2018-04-06T19:11:43.212Z,98753
2018-04-06T19:14:09.917Z,98753
2018-04-06T19:16:37.363Z,98750
2018-04-06T19:19:05.666Z,98755
2018-04-06T19:21:32.369Z,98755
2018-04-06T19:23:59.213Z,98757
2018-04-06T19:26:26.681Z,98757
2018-04-06T19:28:54.093Z,98758
2018-04-06T19:31:20.781Z,98754
2018-04-06T19:33:47.481Z,98761
2018-04-06T19:36:14.226Z,98759
2018-04-06T19:38:40.986Z,98756
2018-04-06T19:41:08.428Z,98761
2018-04-06T19:43:35.184Z,98761
2018-04-06T19:46:02.613Z,98762
2018-04-06T19:48:29.298Z,98763
2018-04-06T19:50:55.987Z,98754
2018-04-06T19:53:22.676Z,98759
2018-04-06T19:55:49.386Z,98761
2018-04-06T19:58:16.817Z,98758
2018-04-06T20:00:43.581Z,98758
2018-04-06T20:03:11.953Z,98761
2018-04-06T20:05:53.721Z,98767
2018-04-06T20:08:20.466Z,98765
2018-04-06T20:10:47.333Z,98769
2018-04-06T20:13:14.906Z,98769
2018-04-06T20:15:42.306Z,98777
2018-04-06T20:18:09.000Z,98773
2018-04-06T20:20:36.373Z,98775
2018-04-06T20:23:03.024Z,98771
2018-04-06T20:25:29.648Z,98774
2018-04-06T20:27:56.265Z,98777
2018-04-06T20:30:23.633Z,98771
2018-04-06T20:32:50.260Z,98770
2018-04-06T20:35:17.754Z,98774
2018-04-06T20:37:44.494Z,98774
2018-04-06T20:40:11.133Z,98777
2018-04-06T20:42:37.748Z,98779
2018-04-06T20:45:04.366Z,98778
2018-04-06T20:47:31.794Z,98782
2018-04-06T20:49:58.433Z,98773
2018-04-06T20:52:25.068Z,98774
2018-04-06T20:54:53.174Z,98777
2018-04-06T20:57:19.821Z,98779
2018-04-06T20:59:46.481Z,98775
2018-04-06T21:02:13.126Z,98780
2018-04-06T21:04:39.746Z,98777
2018-04-06T21:07:06.387Z,98777
2018-04-06T21:09:33.033Z,98786
2018-04-06T21:11:59.663Z,98779
2018-04-06T21:14:26.341Z,98777
2018-04-06T21:16:53.024Z,98779
2018-04-06T21:19:19.716Z,98778
2018-04-06T21:21:46.465Z,98772
2018-04-06T21:24:13.906Z,98773
2018-04-06T21:26:40.669Z,98772
2018-04-06T21:29:08.080Z,98776
2018-04-06T21:31:34.826Z,98768
2018-04-06T21:34:01.506Z,98769
2018-04-06T21:36:28.941Z,98767
2018-04-06T21:38:55.615Z,98764
2018-04-06T21:41:22.327Z,98759
2018-04-06T21:43:49.836Z,98753
2018-04-06T21:46:16.575Z,98754
2018-04-06T21:48:43.273Z,98753
2018-04-06T21:51:10.729Z,98746
2018-04-06T21:53:37.468Z,98753
2018-04-06T21:56:04.947Z,98748
2018-04-06T21:58:31.660Z,98750
2018-04-06T22:00:59.120Z,98754
2018-04-06T22:03:26.617Z,98752
2018-04-06T22:05:53.403Z,98752
2018-04-06T22:08:20.846Z,98749
2018-04-06T22:10:47.578Z,98751
2018-04-06T22:13:15.080Z,98760
2018-04-06T22:15:41.761Z,98757
2018-04-06T22:18:08.483Z,98760
2018-04-06T22:20:35.165Z,98762
2018-04-06T22:23:01.911Z,98761
2018-04-06T22:25:29.333Z,98757
2018-04-06T22:27:56.160Z,98760
2018-04-06T22:30:22.848Z,98762
2018-04-06T22:32:50.283Z,98764
2018-04-06T22:35:16.995Z,98767
2018-04-06T22:37:43.693Z,98768
2018-04-06T22:40:11.206Z,98768
2018-04-06T22:42:37.936Z,98775
2018-04-06T22:45:04.627Z,98772
2018-04-06T22:47:32.126Z,98772
2018-04-06T22:49:58.823Z,98775
2018-04-06T22:52:26.226Z,98778
2018-04-06T22:54:52.948Z,98769
2018-04-06T22:57:19.621Z,98774
2018-04-06T22:59:46.306Z,98775
2018-04-06T23:02:12.996Z,98781
2018-04-06T23:04:39.663Z,98784
2018-04-06T23:07:07.126Z,98782
2018-04-06T23:09:34.545Z,98779
2018-04-06T23:12:01.221Z,98781
2018-04-06T23:14:27.918Z,98782
2018-04-06T23:16:54.587Z,98779
2018-04-06T23:19:21.994Z,98775
2018-04-06T23:21:48.679Z,98774
2018-04-06T23:24:16.133Z,98776
2018-04-06T23:26:43.566Z,98779
2018-04-06T23:29:10.245Z,98783
2018-04-06T23:31:36.925Z,98780
2018-04-06T23:34:03.668Z,98775
2018-04-06T23:36:30.365Z,98777
2018-04-06T23:38:57.042Z,98772
2018-04-06T23:41:23.705Z,98768
2018-04-06T23:43:50.385Z,98773
2018-04-06T23:46:17.092Z,98772
2018-04-06T23:48:44.653Z,98769
2018-04-06T23:51:12.063Z,98773
2018-04-06T23:53:38.756Z,98774
2018-04-06T23:56:06.169Z,98770
2018-04-06T23:58:32.841Z,98767
